aviador You're here:

KVSF Decoded Metar

SPRINGFIELD in VT, USA
Report Time2017-09-21 18:54:00
UTC Time2017-09-21 19:35:03
Flight Rules vfr VFR
WindVRB at 05 kt
Visibility9999 m
Phenomena:N/A
Clouds:N/A
Expected CloudBase > 5,200 ft AGL from Temp-Dew spread
CeilingNone
Temp25°C (ISA +11)
Dew Point12°C (44% RH)
AAT23.8°C
QNH1018 hPa
Density Alt1,886 ft
Elevation574 ft
Report Wrong Elevation
Raw Report
KVSF 211854Z AUTO VRB05KT 10SM CLR 25/12 A3006 RMK AO2 SLP176
T02500122=

Extra information for KVSF:More info

Metar Taf Metar & Taf Last 4 Metars F.Rules Stats Wind Profile Meteogram Temp Stats Airport Information Weather charts Add Link Nearby VenuesMetar ALERT Operation Metar Decoded Social comments

AIRNAV info for KVSF